sensor_id;sensor_type;location;lat;lon;timestamp;P1;durP1;ratioP1;P2;durP2;ratioP2
1879;SDS011;49285;49.002;8.390;2022-10-31T00:02:08;7.13;;;5.63;;
1879;SDS011;49285;49.002;8.390;2022-10-31T00:04:33;9.13;;;5.67;;
1879;SDS011;49285;49.002;8.390;2022-10-31T00:06:59;9.57;;;5.87;;
1879;SDS011;49285;49.002;8.390;2022-10-31T00:09:24;9.90;;;6.60;;
1879;SDS011;49285;49.002;8.390;2022-10-31T00:11:50;11.83;;;5.50;;
1879;SDS011;49285;49.002;8.390;2022-10-31T00:14:15;7.80;;;5.30;;
1879;SDS011;49285;49.002;8.390;2022-10-31T00:16:41;8.50;;;5.10;;
1879;SDS011;49285;49.002;8.390;2022-10-31T00:19:07;6.47;;;5.23;;
1879;SDS011;49285;49.002;8.390;2022-10-31T00:21:33;15.27;;;5.80;;
1879;SDS011;49285;49.002;8.390;2022-10-31T00:23:59;9.53;;;6.20;;
1879;SDS011;49285;49.002;8.390;2022-10-31T00:26:29;6.23;;;4.93;;
1879;SDS011;49285;49.002;8.390;2022-10-31T00:28:56;9.30;;;5.67;;
1879;SDS011;49285;49.002;8.390;2022-10-31T00:31:23;6.50;;;5.30;;
1879;SDS011;49285;49.002;8.390;2022-10-31T00:33:48;8.07;;;4.70;;
1879;SDS011;49285;49.002;8.390;2022-10-31T00:36:15;8.80;;;5.60;;
1879;SDS011;49285;49.002;8.390;2022-10-31T00:38:42;10.77;;;5.83;;
1879;SDS011;49285;49.002;8.390;2022-10-31T00:41:12;9.07;;;5.63;;
1879;SDS011;49285;49.002;8.390;2022-10-31T00:43:40;8.60;;;5.50;;
1879;SDS011;49285;49.002;8.390;2022-10-31T00:46:06;17.70;;;6.23;;
1879;SDS011;49285;49.002;8.390;2022-10-31T00:48:32;10.87;;;5.57;;
1879;SDS011;49285;49.002;8.390;2022-10-31T00:50:57;9.17;;;5.60;;
1879;SDS011;49285;49.002;8.390;2022-10-31T00:53:23;10.13;;;5.87;;
1879;SDS011;49285;49.002;8.390;2022-10-31T00:55:49;6.50;;;5.13;;
1879;SDS011;49285;49.002;8.390;2022-10-31T00:58:15;8.60;;;5.03;;
1879;SDS011;49285;49.002;8.390;2022-10-31T01:00:41;12.47;;;5.90;;
1879;SDS011;49285;49.002;8.390;2022-10-31T01:03:06;12.40;;;5.57;;
1879;SDS011;49285;49.002;8.390;2022-10-31T01:05:32;14.30;;;5.60;;
1879;SDS011;49285;49.002;8.390;2022-10-31T01:07:58;6.77;;;4.97;;
1879;SDS011;49285;49.002;8.390;2022-10-31T01:10:24;9.67;;;5.07;;
1879;SDS011;49285;49.002;8.390;2022-10-31T01:12:49;9.37;;;5.27;;
1879;SDS011;49285;49.002;8.390;2022-10-31T01:15:17;6.70;;;5.13;;
1879;SDS011;49285;49.002;8.390;2022-10-31T01:17:45;6.90;;;5.57;;
1879;SDS011;49285;49.002;8.390;2022-10-31T01:20:11;7.80;;;5.63;;
1879;SDS011;49285;49.002;8.390;2022-10-31T01:22:38;7.90;;;5.40;;
1879;SDS011;49285;49.002;8.390;2022-10-31T01:25:04;11.80;;;5.10;;
1879;SDS011;49285;49.002;8.390;2022-10-31T01:27:31;7.73;;;5.70;;
1879;SDS011;49285;49.002;8.390;2022-10-31T01:29:57;7.57;;;5.53;;
1879;SDS011;49285;49.002;8.390;2022-10-31T01:32:22;8.33;;;5.23;;
1879;SDS011;49285;49.002;8.390;2022-10-31T01:34:48;9.80;;;5.43;;
1879;SDS011;49285;49.002;8.390;2022-10-31T01:37:14;7.80;;;5.80;;
1879;SDS011;49285;49.002;8.390;2022-10-31T01:39:39;15.03;;;5.50;;
1879;SDS011;49285;49.002;8.390;2022-10-31T01:42:05;8.80;;;6.07;;
1879;SDS011;49285;49.002;8.390;2022-10-31T01:46:58;7.13;;;5.20;;
1879;SDS011;49285;49.002;8.390;2022-10-31T01:49:35;8.90;;;5.50;;
1879;SDS011;49285;49.002;8.390;2022-10-31T01:54:43;8.00;;;5.00;;
1879;SDS011;49285;49.002;8.390;2022-10-31T01:57:13;7.47;;;5.03;;
1879;SDS011;49285;49.002;8.390;2022-10-31T01:59:42;7.80;;;5.43;;
1879;SDS011;49285;49.002;8.390;2022-10-31T02:02:10;8.67;;;5.57;;
1879;SDS011;49285;49.002;8.390;2022-10-31T02:04:37;12.93;;;5.47;;
1879;SDS011;49285;49.002;8.390;2022-10-31T02:07:08;12.30;;;6.30;;
1879;SDS011;49285;49.002;8.390;2022-10-31T02:09:38;9.60;;;6.00;;
1879;SDS011;49285;49.002;8.390;2022-10-31T02:12:05;6.77;;;5.30;;
1879;SDS011;49285;49.002;8.390;2022-10-31T02:14:31;11.60;;;5.90;;
1879;SDS011;49285;49.002;8.390;2022-10-31T02:16:59;8.47;;;5.10;;
1879;SDS011;49285;49.002;8.390;2022-10-31T02:19:30;8.53;;;4.70;;
1879;SDS011;49285;49.002;8.390;2022-10-31T02:33:52;9.90;;;5.93;;
1879;SDS011;49285;49.002;8.390;2022-10-31T02:36:25;7.83;;;5.20;;
1879;SDS011;49285;49.002;8.390;2022-10-31T02:42:04;8.97;;;5.90;;
1879;SDS011;49285;49.002;8.390;2022-10-31T02:47:14;8.93;;;5.93;;
1879;SDS011;49285;49.002;8.390;2022-10-31T02:54:49;12.10;;;6.30;;
1879;SDS011;49285;49.002;8.390;2022-10-31T02:57:15;10.63;;;6.10;;
1879;SDS011;49285;49.002;8.390;2022-10-31T02:59:46;8.57;;;5.50;;
1879;SDS011;49285;49.002;8.390;2022-10-31T03:02:20;9.10;;;5.70;;
1879;SDS011;49285;49.002;8.390;2022-10-31T03:05:02;8.73;;;5.67;;
1879;SDS011;49285;49.002;8.390;2022-10-31T03:07:56;9.23;;;6.33;;
1879;SDS011;49285;49.002;8.390;2022-10-31T03:13:18;12.90;;;6.80;;
1879;SDS011;49285;49.002;8.390;2022-10-31T03:18:34;11.03;;;6.00;;
1879;SDS011;49285;49.002;8.390;2022-10-31T03:21:23;8.87;;;6.33;;
1879;SDS011;49285;49.002;8.390;2022-10-31T03:23:52;11.00;;;6.53;;
1879;SDS011;49285;49.002;8.390;2022-10-31T03:26:19;9.93;;;5.57;;
1879;SDS011;49285;49.002;8.390;2022-10-31T03:28:51;8.00;;;4.70;;
1879;SDS011;49285;49.002;8.390;2022-10-31T03:31:26;8.47;;;4.97;;
1879;SDS011;49285;49.002;8.390;2022-10-31T03:33:56;6.90;;;5.20;;
1879;SDS011;49285;49.002;8.390;2022-10-31T03:36:24;5.37;;;4.87;;
1879;SDS011;49285;49.002;8.390;2022-10-31T03:38:53;7.30;;;5.20;;
1879;SDS011;49285;49.002;8.390;2022-10-31T03:41:21;11.77;;;6.20;;
1879;SDS011;49285;49.002;8.390;2022-10-31T03:43:54;16.03;;;5.37;;
1879;SDS011;49285;49.002;8.390;2022-10-31T03:46:24;10.90;;;5.37;;
1879;SDS011;49285;49.002;8.390;2022-10-31T03:48:50;7.50;;;4.80;;
1879;SDS011;49285;49.002;8.390;2022-10-31T03:56:27;10.20;;;4.80;;
1879;SDS011;49285;49.002;8.390;2022-10-31T03:59:05;12.77;;;5.30;;
1879;SDS011;49285;49.002;8.390;2022-10-31T04:01:34;11.87;;;4.60;;
1879;SDS011;49285;49.002;8.390;2022-10-31T04:04:17;7.03;;;5.70;;
1879;SDS011;49285;49.002;8.390;2022-10-31T04:06:44;7.83;;;4.53;;
1879;SDS011;49285;49.002;8.390;2022-10-31T04:09:12;6.97;;;5.07;;
1879;SDS011;49285;49.002;8.390;2022-10-31T04:11:43;6.30;;;4.83;;
1879;SDS011;49285;49.002;8.390;2022-10-31T04:14:13;7.10;;;4.40;;
1879;SDS011;49285;49.002;8.390;2022-10-31T04:16:40;12.73;;;5.50;;
1879;SDS011;49285;49.002;8.390;2022-10-31T04:19:08;7.27;;;4.60;;
1879;SDS011;49285;49.002;8.390;2022-10-31T04:21:34;7.70;;;4.57;;
1879;SDS011;49285;49.002;8.390;2022-10-31T04:24:00;7.17;;;4.30;;
1879;SDS011;49285;49.002;8.390;2022-10-31T04:26:25;8.90;;;4.70;;
1879;SDS011;49285;49.002;8.390;2022-10-31T04:28:51;6.50;;;4.37;;
1879;SDS011;49285;49.002;8.390;2022-10-31T04:31:17;9.97;;;6.03;;
1879;SDS011;49285;49.002;8.390;2022-10-31T04:33:42;11.53;;;4.70;;
1879;SDS011;49285;49.002;8.390;2022-10-31T04:36:08;9.60;;;5.13;;
1879;SDS011;49285;49.002;8.390;2022-10-31T04:38:34;9.90;;;4.50;;
1879;SDS011;49285;49.002;8.390;2022-10-31T04:40:59;10.40;;;5.10;;
1879;SDS011;49285;49.002;8.390;2022-10-31T04:43:25;10.13;;;4.70;;
1879;SDS011;49285;49.002;8.390;2022-10-31T04:45:50;8.83;;;4.93;;
1879;SDS011;49285;49.002;8.390;2022-10-31T04:48:16;9.20;;;4.87;;
1879;SDS011;49285;49.002;8.390;2022-10-31T04:50:42;7.20;;;4.37;;
1879;SDS011;49285;49.002;8.390;2022-10-31T04:53:08;8.57;;;5.37;;
1879;SDS011;49285;49.002;8.390;2022-10-31T04:55:34;7.77;;;3.93;;
1879;SDS011;49285;49.002;8.390;2022-10-31T04:58:01;9.37;;;4.60;;
1879;SDS011;49285;49.002;8.390;2022-10-31T05:00:26;8.50;;;5.10;;
1879;SDS011;49285;49.002;8.390;2022-10-31T05:02:53;13.53;;;5.20;;
1879;SDS011;49285;49.002;8.390;2022-10-31T05:05:20;13.70;;;6.50;;
1879;SDS011;49285;49.002;8.390;2022-10-31T05:07:47;14.13;;;7.17;;
1879;SDS011;49285;49.002;8.390;2022-10-31T05:10:15;12.10;;;5.27;;
1879;SDS011;49285;49.002;8.390;2022-10-31T05:12:49;11.90;;;5.30;;
1879;SDS011;49285;49.002;8.390;2022-10-31T05:15:16;8.20;;;5.07;;
1879;SDS011;49285;49.002;8.390;2022-10-31T05:17:44;6.23;;;4.33;;
1879;SDS011;49285;49.002;8.390;2022-10-31T05:20:11;13.27;;;5.20;;
1879;SDS011;49285;49.002;8.390;2022-10-31T05:22:41;7.77;;;4.90;;
1879;SDS011;49285;49.002;8.390;2022-10-31T05:25:08;8.67;;;5.10;;
1879;SDS011;49285;49.002;8.390;2022-10-31T05:27:34;7.27;;;4.77;;
1879;SDS011;49285;49.002;8.390;2022-10-31T05:29:59;7.30;;;5.03;;
1879;SDS011;49285;49.002;8.390;2022-10-31T05:32:25;12.53;;;4.93;;
1879;SDS011;49285;49.002;8.390;2022-10-31T05:34:50;9.33;;;5.27;;
1879;SDS011;49285;49.002;8.390;2022-10-31T05:37:16;7.53;;;5.20;;
1879;SDS011;49285;49.002;8.390;2022-10-31T05:39:41;9.17;;;4.37;;
1879;SDS011;49285;49.002;8.390;2022-10-31T05:42:07;7.63;;;4.83;;
1879;SDS011;49285;49.002;8.390;2022-10-31T05:44:32;8.10;;;4.70;;
1879;SDS011;49285;49.002;8.390;2022-10-31T05:46:58;12.20;;;5.23;;
1879;SDS011;49285;49.002;8.390;2022-10-31T05:49:23;11.17;;;5.47;;
1879;SDS011;49285;49.002;8.390;2022-10-31T05:51:49;8.63;;;4.13;;
1879;SDS011;49285;49.002;8.390;2022-10-31T05:54:14;8.77;;;4.97;;
1879;SDS011;49285;49.002;8.390;2022-10-31T05:56:40;11.10;;;4.90;;
1879;SDS011;49285;49.002;8.390;2022-10-31T05:59:05;9.90;;;5.10;;
1879;SDS011;49285;49.002;8.390;2022-10-31T06:01:31;10.33;;;4.93;;
1879;SDS011;49285;49.002;8.390;2022-10-31T06:03:56;7.37;;;4.27;;
1879;SDS011;49285;49.002;8.390;2022-10-31T06:06:22;7.20;;;4.10;;
1879;SDS011;49285;49.002;8.390;2022-10-31T06:08:47;9.70;;;4.60;;
1879;SDS011;49285;49.002;8.390;2022-10-31T06:11:13;10.57;;;5.80;;
1879;SDS011;49285;49.002;8.390;2022-10-31T06:13:39;6.60;;;4.43;;
1879;SDS011;49285;49.002;8.390;2022-10-31T06:16:04;5.70;;;4.30;;
1879;SDS011;49285;49.002;8.390;2022-10-31T06:18:30;5.87;;;4.20;;
1879;SDS011;49285;49.002;8.390;2022-10-31T06:20:55;10.23;;;4.33;;
1879;SDS011;49285;49.002;8.390;2022-10-31T06:23:21;8.53;;;4.63;;
1879;SDS011;49285;49.002;8.390;2022-10-31T06:25:49;11.10;;;4.43;;
1879;SDS011;49285;49.002;8.390;2022-10-31T06:28:15;11.67;;;5.10;;
1879;SDS011;49285;49.002;8.390;2022-10-31T06:30:41;13.10;;;4.60;;
1879;SDS011;49285;49.002;8.390;2022-10-31T06:33:06;10.97;;;5.27;;
1879;SDS011;49285;49.002;8.390;2022-10-31T06:35:32;5.20;;;3.73;;
1879;SDS011;49285;49.002;8.390;2022-10-31T06:37:58;7.93;;;4.80;;
1879;SDS011;49285;49.002;8.390;2022-10-31T06:40:23;6.67;;;3.97;;
1879;SDS011;49285;49.002;8.390;2022-10-31T06:42:59;12.03;;;4.70;;
1879;SDS011;49285;49.002;8.390;2022-10-31T06:45:25;17.93;;;4.70;;
1879;SDS011;49285;49.002;8.390;2022-10-31T06:47:54;9.17;;;5.13;;
1879;SDS011;49285;49.002;8.390;2022-10-31T06:50:21;10.30;;;5.40;;
1879;SDS011;49285;49.002;8.390;2022-10-31T06:52:51;19.67;;;5.70;;
1879;SDS011;49285;49.002;8.390;2022-10-31T06:55:17;10.03;;;5.40;;
1879;SDS011;49285;49.002;8.390;2022-10-31T06:57:48;7.80;;;5.00;;
1879;SDS011;49285;49.002;8.390;2022-10-31T07:00:15;6.53;;;4.67;;
1879;SDS011;49285;49.002;8.390;2022-10-31T07:02:40;11.83;;;5.07;;
1879;SDS011;49285;49.002;8.390;2022-10-31T07:05:06;15.13;;;5.63;;
1879;SDS011;49285;49.002;8.390;2022-10-31T07:07:32;9.00;;;5.53;;
1879;SDS011;49285;49.002;8.390;2022-10-31T07:09:57;14.43;;;5.97;;
1879;SDS011;49285;49.002;8.390;2022-10-31T07:12:23;8.10;;;5.00;;
1879;SDS011;49285;49.002;8.390;2022-10-31T07:14:48;9.60;;;5.17;;
1879;SDS011;49285;49.002;8.390;2022-10-31T07:17:14;17.00;;;5.10;;
1879;SDS011;49285;49.002;8.390;2022-10-31T07:19:40;11.70;;;5.83;;
1879;SDS011;49285;49.002;8.390;2022-10-31T07:22:06;9.53;;;5.30;;
1879;SDS011;49285;49.002;8.390;2022-10-31T07:24:31;8.43;;;5.07;;
1879;SDS011;49285;49.002;8.390;2022-10-31T07:26:57;14.60;;;5.70;;
1879;SDS011;49285;49.002;8.390;2022-10-31T07:29:23;9.97;;;5.70;;
1879;SDS011;49285;49.002;8.390;2022-10-31T07:31:48;7.40;;;4.90;;
1879;SDS011;49285;49.002;8.390;2022-10-31T07:34:14;7.10;;;4.40;;
1879;SDS011;49285;49.002;8.390;2022-10-31T07:36:39;10.40;;;5.40;;
1879;SDS011;49285;49.002;8.390;2022-10-31T07:39:05;10.93;;;5.63;;
1879;SDS011;49285;49.002;8.390;2022-10-31T07:41:30;9.50;;;5.97;;
1879;SDS011;49285;49.002;8.390;2022-10-31T07:43:56;17.80;;;6.10;;
1879;SDS011;49285;49.002;8.390;2022-10-31T07:46:22;11.57;;;6.40;;
1879;SDS011;49285;49.002;8.390;2022-10-31T07:48:47;11.23;;;6.10;;
1879;SDS011;49285;49.002;8.390;2022-10-31T07:51:13;5.90;;;5.23;;
1879;SDS011;49285;49.002;8.390;2022-10-31T07:53:38;12.80;;;5.07;;
1879;SDS011;49285;49.002;8.390;2022-10-31T07:56:04;6.43;;;4.70;;
1879;SDS011;49285;49.002;8.390;2022-10-31T07:58:30;14.67;;;6.03;;
1879;SDS011;49285;49.002;8.390;2022-10-31T08:00:57;6.97;;;5.00;;
1879;SDS011;49285;49.002;8.390;2022-10-31T08:03:22;8.00;;;5.00;;
1879;SDS011;49285;49.002;8.390;2022-10-31T08:05:48;10.27;;;5.40;;
1879;SDS011;49285;49.002;8.390;2022-10-31T08:08:14;9.80;;;5.97;;
1879;SDS011;49285;49.002;8.390;2022-10-31T08:10:39;7.67;;;5.80;;
1879;SDS011;49285;49.002;8.390;2022-10-31T08:13:12;9.17;;;5.40;;
1879;SDS011;49285;49.002;8.390;2022-10-31T08:15:38;9.00;;;5.23;;
1879;SDS011;49285;49.002;8.390;2022-10-31T08:18:06;7.87;;;5.30;;
1879;SDS011;49285;49.002;8.390;2022-10-31T08:20:40;6.13;;;4.90;;
1879;SDS011;49285;49.002;8.390;2022-10-31T08:23:06;8.27;;;4.93;;
1879;SDS011;49285;49.002;8.390;2022-10-31T08:25:33;13.13;;;5.33;;
1879;SDS011;49285;49.002;8.390;2022-10-31T08:27:59;7.67;;;5.20;;
1879;SDS011;49285;49.002;8.390;2022-10-31T08:30:26;9.23;;;5.33;;
1879;SDS011;49285;49.002;8.390;2022-10-31T08:33:12;12.20;;;5.60;;
1879;SDS011;49285;49.002;8.390;2022-10-31T08:35:39;8.40;;;6.10;;
1879;SDS011;49285;49.002;8.390;2022-10-31T08:38:05;11.53;;;5.13;;
1879;SDS011;49285;49.002;8.390;2022-10-31T08:40:32;13.53;;;5.10;;
1879;SDS011;49285;49.002;8.390;2022-10-31T08:43:01;9.20;;;5.30;;
1879;SDS011;49285;49.002;8.390;2022-10-31T08:45:27;9.37;;;6.40;;
1879;SDS011;49285;49.002;8.390;2022-10-31T08:48:00;13.40;;;5.63;;
1879;SDS011;49285;49.002;8.390;2022-10-31T08:50:28;10.03;;;4.53;;
1879;SDS011;49285;49.002;8.390;2022-10-31T08:53:28;7.53;;;4.50;;
1879;SDS011;49285;49.002;8.390;2022-10-31T08:55:47;7.90;;;5.17;;
1879;SDS011;49285;49.002;8.390;2022-10-31T08:58:14;13.60;;;5.63;;
1879;SDS011;49285;49.002;8.390;2022-10-31T09:00:44;11.30;;;4.83;;
1879;SDS011;49285;49.002;8.390;2022-10-31T09:03:11;8.23;;;6.10;;
1879;SDS011;49285;49.002;8.390;2022-10-31T09:05:39;8.13;;;5.23;;
1879;SDS011;49285;49.002;8.390;2022-10-31T09:08:05;8.70;;;4.83;;
1879;SDS011;49285;49.002;8.390;2022-10-31T09:10:32;7.77;;;5.13;;
1879;SDS011;49285;49.002;8.390;2022-10-31T09:12:59;13.20;;;5.50;;
1879;SDS011;49285;49.002;8.390;2022-10-31T09:15:27;10.00;;;5.87;;
1879;SDS011;49285;49.002;8.390;2022-10-31T09:17:53;10.43;;;5.37;;
1879;SDS011;49285;49.002;8.390;2022-10-31T09:20:19;6.97;;;5.00;;
1879;SDS011;49285;49.002;8.390;2022-10-31T09:22:44;8.10;;;5.10;;
1879;SDS011;49285;49.002;8.390;2022-10-31T09:25:10;10.33;;;5.13;;
1879;SDS011;49285;49.002;8.390;2022-10-31T09:27:36;9.10;;;4.73;;
1879;SDS011;49285;49.002;8.390;2022-10-31T09:30:02;7.30;;;5.37;;
1879;SDS011;49285;49.002;8.390;2022-10-31T09:32:29;9.70;;;5.70;;
1879;SDS011;49285;49.002;8.390;2022-10-31T09:34:54;10.70;;;5.83;;
1879;SDS011;49285;49.002;8.390;2022-10-31T09:37:20;7.07;;;5.30;;
1879;SDS011;49285;49.002;8.390;2022-10-31T09:39:45;11.93;;;5.57;;
1879;SDS011;49285;49.002;8.390;2022-10-31T09:45:45;9.53;;;5.50;;
1879;SDS011;49285;49.002;8.390;2022-10-31T09:47:56;7.20;;;5.40;;
1879;SDS011;49285;49.002;8.390;2022-10-31T09:50:45;7.27;;;5.57;;
1879;SDS011;49285;49.002;8.390;2022-10-31T09:55:49;13.37;;;6.00;;
1879;SDS011;49285;49.002;8.390;2022-10-31T09:58:20;9.13;;;4.77;;
1879;SDS011;49285;49.002;8.390;2022-10-31T10:00:50;10.43;;;6.23;;
1879;SDS011;49285;49.002;8.390;2022-10-31T10:08:32;10.10;;;6.43;;
1879;SDS011;49285;49.002;8.390;2022-10-31T10:13:51;7.67;;;5.53;;
1879;SDS011;49285;49.002;8.390;2022-10-31T10:21:58;9.83;;;5.53;;
1879;SDS011;49285;49.002;8.390;2022-10-31T10:30:19;9.40;;;6.13;;
1879;SDS011;49285;49.002;8.390;2022-10-31T10:32:47;8.20;;;6.03;;
1879;SDS011;49285;49.002;8.390;2022-10-31T10:35:30;8.20;;;4.90;;
1879;SDS011;49285;49.002;8.390;2022-10-31T10:40:37;6.73;;;5.40;;
1879;SDS011;49285;49.002;8.390;2022-10-31T10:45:53;10.77;;;6.30;;
1879;SDS011;49285;49.002;8.390;2022-10-31T10:48:57;8.53;;;5.83;;
1879;SDS011;49285;49.002;8.390;2022-10-31T10:59:24;6.57;;;5.67;;
1879;SDS011;49285;49.002;8.390;2022-10-31T11:01:51;11.17;;;5.63;;
1879;SDS011;49285;49.002;8.390;2022-10-31T11:04:28;12.73;;;5.60;;
1879;SDS011;49285;49.002;8.390;2022-10-31T11:06:59;10.23;;;6.47;;
1879;SDS011;49285;49.002;8.390;2022-10-31T11:09:26;12.77;;;5.90;;
1879;SDS011;49285;49.002;8.390;2022-10-31T11:11:52;11.30;;;6.40;;
1879;SDS011;49285;49.002;8.390;2022-10-31T11:14:18;12.43;;;6.23;;
1879;SDS011;49285;49.002;8.390;2022-10-31T11:16:46;9.57;;;6.33;;
1879;SDS011;49285;49.002;8.390;2022-10-31T11:19:16;9.33;;;5.87;;
1879;SDS011;49285;49.002;8.390;2022-10-31T11:21:48;9.40;;;5.13;;
1879;SDS011;49285;49.002;8.390;2022-10-31T11:24:18;7.83;;;5.10;;
1879;SDS011;49285;49.002;8.390;2022-10-31T11:26:46;8.20;;;5.80;;
1879;SDS011;49285;49.002;8.390;2022-10-31T11:29:14;10.90;;;5.97;;
1879;SDS011;49285;49.002;8.390;2022-10-31T11:31:50;10.40;;;5.53;;
1879;SDS011;49285;49.002;8.390;2022-10-31T11:36:52;8.53;;;6.10;;
1879;SDS011;49285;49.002;8.390;2022-10-31T11:39:19;8.90;;;5.77;;
1879;SDS011;49285;49.002;8.390;2022-10-31T11:41:47;11.93;;;5.77;;
1879;SDS011;49285;49.002;8.390;2022-10-31T11:44:16;7.53;;;5.17;;
1879;SDS011;49285;49.002;8.390;2022-10-31T11:46:51;11.17;;;6.40;;
1879;SDS011;49285;49.002;8.390;2022-10-31T11:49:32;13.90;;;5.60;;
1879;SDS011;49285;49.002;8.390;2022-10-31T11:52:12;13.10;;;6.20;;
1879;SDS011;49285;49.002;8.390;2022-10-31T11:57:44;14.37;;;6.53;;
1879;SDS011;49285;49.002;8.390;2022-10-31T12:02:51;10.63;;;6.23;;
1879;SDS011;49285;49.002;8.390;2022-10-31T12:05:28;11.20;;;7.00;;
1879;SDS011;49285;49.002;8.390;2022-10-31T12:07:57;13.00;;;7.03;;
1879;SDS011;49285;49.002;8.390;2022-10-31T12:10:24;8.87;;;7.00;;
1879;SDS011;49285;49.002;8.390;2022-10-31T12:13:08;10.80;;;6.37;;
1879;SDS011;49285;49.002;8.390;2022-10-31T12:15:36;15.03;;;7.80;;
1879;SDS011;49285;49.002;8.390;2022-10-31T12:21:12;10.73;;;6.27;;
1879;SDS011;49285;49.002;8.390;2022-10-31T12:26:44;8.93;;;5.50;;
1879;SDS011;49285;49.002;8.390;2022-10-31T12:32:26;11.07;;;7.37;;
1879;SDS011;49285;49.002;8.390;2022-10-31T12:40:58;8.20;;;6.33;;
1879;SDS011;49285;49.002;8.390;2022-10-31T12:43:46;9.53;;;6.03;;
1879;SDS011;49285;49.002;8.390;2022-10-31T12:52:56;10.60;;;5.93;;
1879;SDS011;49285;49.002;8.390;2022-10-31T12:57:44;7.87;;;6.23;;
1879;SDS011;49285;49.002;8.390;2022-10-31T13:00:13;7.07;;;6.00;;
1879;SDS011;49285;49.002;8.390;2022-10-31T13:05:28;11.50;;;6.00;;
1879;SDS011;49285;49.002;8.390;2022-10-31T13:07:58;7.73;;;5.97;;
1879;SDS011;49285;49.002;8.390;2022-10-31T13:10:52;9.17;;;5.53;;
1879;SDS011;49285;49.002;8.390;2022-10-31T13:16:24;11.47;;;6.90;;
1879;SDS011;49285;49.002;8.390;2022-10-31T13:19:08;14.10;;;6.53;;
1879;SDS011;49285;49.002;8.390;2022-10-31T13:21:53;8.47;;;6.07;;
1879;SDS011;49285;49.002;8.390;2022-10-31T13:24:31;12.13;;;6.03;;
1879;SDS011;49285;49.002;8.390;2022-10-31T13:27:34;9.67;;;5.80;;
1879;SDS011;49285;49.002;8.390;2022-10-31T13:30:17;8.10;;;5.50;;
1879;SDS011;49285;49.002;8.390;2022-10-31T13:32:46;15.40;;;6.13;;
1879;SDS011;49285;49.002;8.390;2022-10-31T13:41:04;9.53;;;5.17;;
1879;SDS011;49285;49.002;8.390;2022-10-31T13:46:51;9.33;;;6.00;;
1879;SDS011;49285;49.002;8.390;2022-10-31T13:59:56;9.23;;;6.40;;
1879;SDS011;49285;49.002;8.390;2022-10-31T14:02:26;7.03;;;4.90;;
1879;SDS011;49285;49.002;8.390;2022-10-31T14:04:56;7.03;;;5.70;;
1879;SDS011;49285;49.002;8.390;2022-10-31T14:07:25;7.30;;;5.73;;
1879;SDS011;49285;49.002;8.390;2022-10-31T14:09:54;8.03;;;5.90;;
1879;SDS011;49285;49.002;8.390;2022-10-31T14:12:38;12.87;;;6.23;;
1879;SDS011;49285;49.002;8.390;2022-10-31T14:28:49;13.50;;;7.33;;
1879;SDS011;49285;49.002;8.390;2022-10-31T14:39:54;9.03;;;6.67;;
1879;SDS011;49285;49.002;8.390;2022-10-31T14:48:30;10.53;;;7.27;;
1879;SDS011;49285;49.002;8.390;2022-10-31T14:50:58;11.33;;;7.27;;
1879;SDS011;49285;49.002;8.390;2022-10-31T14:53:27;8.97;;;6.83;;
1879;SDS011;49285;49.002;8.390;2022-10-31T14:55:58;11.70;;;7.00;;
1879;SDS011;49285;49.002;8.390;2022-10-31T14:58:28;10.00;;;5.53;;
1879;SDS011;49285;49.002;8.390;2022-10-31T15:01:02;11.93;;;7.20;;
1879;SDS011;49285;49.002;8.390;2022-10-31T15:03:42;9.00;;;6.67;;
1879;SDS011;49285;49.002;8.390;2022-10-31T15:06:12;12.10;;;7.27;;
1879;SDS011;49285;49.002;8.390;2022-10-31T15:08:44;11.67;;;7.07;;
1879;SDS011;49285;49.002;8.390;2022-10-31T15:11:16;9.20;;;6.97;;
1879;SDS011;49285;49.002;8.390;2022-10-31T15:13:44;13.87;;;6.70;;
1879;SDS011;49285;49.002;8.390;2022-10-31T15:16:21;10.80;;;6.57;;
1879;SDS011;49285;49.002;8.390;2022-10-31T15:18:59;8.27;;;5.50;;
1879;SDS011;49285;49.002;8.390;2022-10-31T15:21:27;9.23;;;6.90;;
1879;SDS011;49285;49.002;8.390;2022-10-31T15:23:55;13.30;;;6.57;;
1879;SDS011;49285;49.002;8.390;2022-10-31T15:26:23;7.90;;;7.00;;
1879;SDS011;49285;49.002;8.390;2022-10-31T15:28:57;9.43;;;6.20;;
1879;SDS011;49285;49.002;8.390;2022-10-31T15:31:28;12.63;;;6.33;;
1879;SDS011;49285;49.002;8.390;2022-10-31T15:33:54;9.47;;;6.43;;
1879;SDS011;49285;49.002;8.390;2022-10-31T15:36:25;11.17;;;6.10;;
1879;SDS011;49285;49.002;8.390;2022-10-31T15:38:51;11.47;;;5.53;;
1879;SDS011;49285;49.002;8.390;2022-10-31T15:41:23;14.07;;;6.30;;
1879;SDS011;49285;49.002;8.390;2022-10-31T15:44:03;10.97;;;6.23;;
1879;SDS011;49285;49.002;8.390;2022-10-31T15:46:41;19.00;;;6.10;;
1879;SDS011;49285;49.002;8.390;2022-10-31T15:49:21;8.10;;;6.17;;
1879;SDS011;49285;49.002;8.390;2022-10-31T15:52:04;9.73;;;7.10;;
1879;SDS011;49285;49.002;8.390;2022-10-31T15:54:31;10.47;;;6.97;;
1879;SDS011;49285;49.002;8.390;2022-10-31T15:56:57;10.00;;;7.23;;
1879;SDS011;49285;49.002;8.390;2022-10-31T15:59:24;11.27;;;6.13;;
1879;SDS011;49285;49.002;8.390;2022-10-31T16:01:59;12.80;;;6.50;;
1879;SDS011;49285;49.002;8.390;2022-10-31T16:04:26;8.53;;;7.00;;
1879;SDS011;49285;49.002;8.390;2022-10-31T16:07:12;11.73;;;7.00;;
1879;SDS011;49285;49.002;8.390;2022-10-31T16:12:17;19.63;;;7.40;;
1879;SDS011;49285;49.002;8.390;2022-10-31T16:14:43;7.40;;;6.70;;
1879;SDS011;49285;49.002;8.390;2022-10-31T16:17:13;13.00;;;7.13;;
1879;SDS011;49285;49.002;8.390;2022-10-31T16:25:01;10.53;;;7.00;;
1879;SDS011;49285;49.002;8.390;2022-10-31T16:27:50;10.40;;;7.50;;
1879;SDS011;49285;49.002;8.390;2022-10-31T16:33:01;12.60;;;6.90;;
1879;SDS011;49285;49.002;8.390;2022-10-31T16:35:37;14.00;;;7.20;;
1879;SDS011;49285;49.002;8.390;2022-10-31T16:38:03;9.73;;;7.73;;
1879;SDS011;49285;49.002;8.390;2022-10-31T16:40:30;11.97;;;7.77;;
1879;SDS011;49285;49.002;8.390;2022-10-31T16:42:57;11.00;;;7.47;;
1879;SDS011;49285;49.002;8.390;2022-10-31T16:45:24;16.13;;;7.47;;
1879;SDS011;49285;49.002;8.390;2022-10-31T16:47:54;11.00;;;7.97;;
1879;SDS011;49285;49.002;8.390;2022-10-31T16:50:30;15.30;;;7.97;;
1879;SDS011;49285;49.002;8.390;2022-10-31T16:52:56;8.40;;;7.53;;
1879;SDS011;49285;49.002;8.390;2022-10-31T16:55:22;11.50;;;7.90;;
1879;SDS011;49285;49.002;8.390;2022-10-31T16:57:48;8.77;;;7.37;;
1879;SDS011;49285;49.002;8.390;2022-10-31T17:00:18;11.20;;;6.83;;
1879;SDS011;49285;49.002;8.390;2022-10-31T17:02:46;14.33;;;7.30;;
1879;SDS011;49285;49.002;8.390;2022-10-31T17:05:14;11.20;;;6.20;;
1879;SDS011;49285;49.002;8.390;2022-10-31T17:07:41;9.73;;;6.50;;
1879;SDS011;49285;49.002;8.390;2022-10-31T17:10:07;12.70;;;8.10;;
1879;SDS011;49285;49.002;8.390;2022-10-31T17:12:34;9.63;;;7.03;;
1879;SDS011;49285;49.002;8.390;2022-10-31T17:15:00;13.23;;;7.67;;
1879;SDS011;49285;49.002;8.390;2022-10-31T17:17:26;12.33;;;8.20;;
1879;SDS011;49285;49.002;8.390;2022-10-31T17:19:51;12.53;;;7.80;;
1879;SDS011;49285;49.002;8.390;2022-10-31T17:22:17;14.10;;;8.13;;
1879;SDS011;49285;49.002;8.390;2022-10-31T17:24:43;11.27;;;8.23;;
1879;SDS011;49285;49.002;8.390;2022-10-31T17:27:08;11.03;;;8.60;;
1879;SDS011;49285;49.002;8.390;2022-10-31T17:29:34;12.30;;;7.83;;
1879;SDS011;49285;49.002;8.390;2022-10-31T17:32:00;9.67;;;7.17;;
1879;SDS011;49285;49.002;8.390;2022-10-31T17:34:27;10.10;;;8.00;;
1879;SDS011;49285;49.002;8.390;2022-10-31T17:36:52;11.70;;;7.90;;
1879;SDS011;49285;49.002;8.390;2022-10-31T17:39:18;11.43;;;8.77;;
1879;SDS011;49285;49.002;8.390;2022-10-31T17:41:44;11.30;;;8.40;;
1879;SDS011;49285;49.002;8.390;2022-10-31T17:44:10;10.87;;;7.73;;
1879;SDS011;49285;49.002;8.390;2022-10-31T17:46:36;14.07;;;8.70;;
1879;SDS011;49285;49.002;8.390;2022-10-31T17:49:03;11.23;;;8.43;;
1879;SDS011;49285;49.002;8.390;2022-10-31T17:51:30;12.73;;;8.50;;
1879;SDS011;49285;49.002;8.390;2022-10-31T17:53:57;11.73;;;8.83;;
1879;SDS011;49285;49.002;8.390;2022-10-31T17:56:23;10.90;;;8.10;;
1879;SDS011;49285;49.002;8.390;2022-10-31T17:58:48;13.70;;;8.30;;
1879;SDS011;49285;49.002;8.390;2022-10-31T18:01:15;14.27;;;10.10;;